sensor_id;sensor_type;location;lat;lon;timestamp;temperature;humidity
58993;DHT22;44782;0.000;0.000;2023-06-19T00:00:07;25.30;57.60
58993;DHT22;44782;0.000;0.000;2023-06-19T00:02:28;25.20;57.50
58993;DHT22;44782;0.000;0.000;2023-06-19T00:04:43;25.20;57.50
58993;DHT22;44782;0.000;0.000;2023-06-19T00:07:00;25.20;57.50
58993;DHT22;44782;0.000;0.000;2023-06-19T00:09:16;25.20;57.50
58993;DHT22;44782;0.000;0.000;2023-06-19T00:11:32;25.20;57.40
58993;DHT22;44782;0.000;0.000;2023-06-19T00:13:49;25.20;57.40
58993;DHT22;44782;0.000;0.000;2023-06-19T00:16:08;25.20;57.40
58993;DHT22;44782;0.000;0.000;2023-06-19T00:18:23;25.20;57.30
58993;DHT22;44782;0.000;0.000;2023-06-19T00:20:39;25.20;57.40
58993;DHT22;44782;0.000;0.000;2023-06-19T00:22:54;25.20;57.30
58993;DHT22;44782;0.000;0.000;2023-06-19T00:25:10;25.20;57.30
58993;DHT22;44782;0.000;0.000;2023-06-19T00:27:26;25.20;57.30
58993;DHT22;44782;0.000;0.000;2023-06-19T00:29:41;25.20;57.30
58993;DHT22;44782;0.000;0.000;2023-06-19T00:31:58;25.20;57.20
58993;DHT22;44782;0.000;0.000;2023-06-19T00:34:14;25.20;57.20
58993;DHT22;44782;0.000;0.000;2023-06-19T00:36:29;25.20;57.20
58993;DHT22;44782;0.000;0.000;2023-06-19T00:38:45;25.20;57.20
58993;DHT22;44782;0.000;0.000;2023-06-19T00:41:01;25.20;57.20
58993;DHT22;44782;0.000;0.000;2023-06-19T00:43:18;25.20;57.20
58993;DHT22;44782;0.000;0.000;2023-06-19T00:45:34;25.20;57.10
58993;DHT22;44782;0.000;0.000;2023-06-19T00:47:53;25.20;57.10
58993;DHT22;44782;0.000;0.000;2023-06-19T00:50:10;25.20;57.00
58993;DHT22;44782;0.000;0.000;2023-06-19T00:52:26;25.20;57.10
58993;DHT22;44782;0.000;0.000;2023-06-19T00:54:42;25.10;57.00
58993;DHT22;44782;0.000;0.000;2023-06-19T00:56:57;25.10;57.00
58993;DHT22;44782;0.000;0.000;2023-06-19T00:59:17;25.10;56.90
58993;DHT22;44782;0.000;0.000;2023-06-19T01:01:33;25.10;56.80
58993;DHT22;44782;0.000;0.000;2023-06-19T01:03:49;25.10;56.90
58993;DHT22;44782;0.000;0.000;2023-06-19T01:06:15;25.10;56.90
58993;DHT22;44782;0.000;0.000;2023-06-19T01:11:04;25.10;56.60
58993;DHT22;44782;0.000;0.000;2023-06-19T01:16:11;25.10;56.60
58993;DHT22;44782;0.000;0.000;2023-06-19T01:18:28;25.10;56.90
58993;DHT22;44782;0.000;0.000;2023-06-19T01:20:44;25.10;56.80
58993;DHT22;44782;0.000;0.000;2023-06-19T01:23:10;25.10;56.80
58993;DHT22;44782;0.000;0.000;2023-06-19T01:25:26;25.10;56.60
58993;DHT22;44782;0.000;0.000;2023-06-19T01:27:42;25.10;56.80
58993;DHT22;44782;0.000;0.000;2023-06-19T01:29:59;25.10;56.70
58993;DHT22;44782;0.000;0.000;2023-06-19T01:32:22;25.10;56.70
58993;DHT22;44782;0.000;0.000;2023-06-19T01:34:41;25.10;56.60
58993;DHT22;44782;0.000;0.000;2023-06-19T01:36:58;25.00;56.60
58993;DHT22;44782;0.000;0.000;2023-06-19T01:39:16;25.10;56.70
58993;DHT22;44782;0.000;0.000;2023-06-19T01:41:34;25.10;56.70
58993;DHT22;44782;0.000;0.000;2023-06-19T01:43:49;25.10;56.70
58993;DHT22;44782;0.000;0.000;2023-06-19T01:46:06;25.10;56.70
58993;DHT22;44782;0.000;0.000;2023-06-19T01:48:22;25.00;56.50
58993;DHT22;44782;0.000;0.000;2023-06-19T01:50:37;25.10;56.70
58993;DHT22;44782;0.000;0.000;2023-06-19T01:52:53;25.00;56.50
58993;DHT22;44782;0.000;0.000;2023-06-19T01:55:11;25.00;56.50
58993;DHT22;44782;0.000;0.000;2023-06-19T01:57:27;25.00;56.50
58993;DHT22;44782;0.000;0.000;2023-06-19T01:59:43;25.00;56.50
58993;DHT22;44782;0.000;0.000;2023-06-19T02:01:59;25.00;56.50
58993;DHT22;44782;0.000;0.000;2023-06-19T02:04:14;25.00;56.50
58993;DHT22;44782;0.000;0.000;2023-06-19T02:06:30;25.00;56.50
58993;DHT22;44782;0.000;0.000;2023-06-19T02:08:46;25.00;56.40
58993;DHT22;44782;0.000;0.000;2023-06-19T02:11:01;25.00;56.40
58993;DHT22;44782;0.000;0.000;2023-06-19T02:13:17;25.00;56.40
58993;DHT22;44782;0.000;0.000;2023-06-19T02:15:32;25.00;56.40
58993;DHT22;44782;0.000;0.000;2023-06-19T02:17:48;25.00;56.40
58993;DHT22;44782;0.000;0.000;2023-06-19T02:20:05;25.00;56.30
58993;DHT22;44782;0.000;0.000;2023-06-19T02:22:24;25.00;56.40
58993;DHT22;44782;0.000;0.000;2023-06-19T02:24:39;24.90;56.30
58993;DHT22;44782;0.000;0.000;2023-06-19T02:26:55;24.90;56.30
58993;DHT22;44782;0.000;0.000;2023-06-19T02:29:11;24.90;56.30
58993;DHT22;44782;0.000;0.000;2023-06-19T02:31:26;24.90;56.30
58993;DHT22;44782;0.000;0.000;2023-06-19T02:33:42;25.00;56.30
58993;DHT22;44782;0.000;0.000;2023-06-19T02:35:58;25.00;56.30
58993;DHT22;44782;0.000;0.000;2023-06-19T02:38:14;24.90;56.20
58993;DHT22;44782;0.000;0.000;2023-06-19T02:40:30;24.90;56.30
58993;DHT22;44782;0.000;0.000;2023-06-19T02:42:45;24.90;56.20
58993;DHT22;44782;0.000;0.000;2023-06-19T02:45:01;24.90;56.20
58993;DHT22;44782;0.000;0.000;2023-06-19T02:47:23;24.90;56.20
58993;DHT22;44782;0.000;0.000;2023-06-19T02:49:38;24.90;56.20
58993;DHT22;44782;0.000;0.000;2023-06-19T02:51:55;24.90;56.20
58993;DHT22;44782;0.000;0.000;2023-06-19T02:54:11;24.90;56.30
58993;DHT22;44782;0.000;0.000;2023-06-19T02:56:27;24.90;56.20
58993;DHT22;44782;0.000;0.000;2023-06-19T02:58:44;24.90;56.20
58993;DHT22;44782;0.000;0.000;2023-06-19T03:01:00;24.90;56.20
58993;DHT22;44782;0.000;0.000;2023-06-19T03:03:15;24.90;56.20
58993;DHT22;44782;0.000;0.000;2023-06-19T03:05:31;24.90;56.20
58993;DHT22;44782;0.000;0.000;2023-06-19T03:07:46;24.90;56.20
58993;DHT22;44782;0.000;0.000;2023-06-19T03:10:02;24.90;56.20
58993;DHT22;44782;0.000;0.000;2023-06-19T03:12:18;24.90;56.20
58993;DHT22;44782;0.000;0.000;2023-06-19T03:14:33;24.90;56.40
58993;DHT22;44782;0.000;0.000;2023-06-19T03:16:49;24.80;56.20
58993;DHT22;44782;0.000;0.000;2023-06-19T03:19:08;24.90;56.20
58993;DHT22;44782;0.000;0.000;2023-06-19T03:21:24;24.90;56.30
58993;DHT22;44782;0.000;0.000;2023-06-19T03:23:39;24.90;56.20
58993;DHT22;44782;0.000;0.000;2023-06-19T03:25:56;24.90;56.20
58993;DHT22;44782;0.000;0.000;2023-06-19T03:28:13;24.90;56.90
58993;DHT22;44782;0.000;0.000;2023-06-19T03:30:30;24.90;56.20
58993;DHT22;44782;0.000;0.000;2023-06-19T03:32:46;24.80;56.10
58993;DHT22;44782;0.000;0.000;2023-06-19T03:35:01;24.80;56.10
58993;DHT22;44782;0.000;0.000;2023-06-19T03:37:17;24.90;56.20
58993;DHT22;44782;0.000;0.000;2023-06-19T03:39:33;24.80;56.10
58993;DHT22;44782;0.000;0.000;2023-06-19T03:41:48;24.90;56.20
58993;DHT22;44782;0.000;0.000;2023-06-19T03:44:07;24.90;56.20
58993;DHT22;44782;0.000;0.000;2023-06-19T03:46:23;24.90;56.20
58993;DHT22;44782;0.000;0.000;2023-06-19T03:48:38;24.80;56.10
58993;DHT22;44782;0.000;0.000;2023-06-19T03:50:54;24.80;56.10
58993;DHT22;44782;0.000;0.000;2023-06-19T03:53:10;24.80;56.10
58993;DHT22;44782;0.000;0.000;2023-06-19T03:55:26;24.90;56.10
58993;DHT22;44782;0.000;0.000;2023-06-19T03:57:41;24.80;56.10
58993;DHT22;44782;0.000;0.000;2023-06-19T03:59:57;24.80;56.10
58993;DHT22;44782;0.000;0.000;2023-06-19T04:02:13;24.80;56.00
58993;DHT22;44782;0.000;0.000;2023-06-19T04:04:28;24.80;56.10
58993;DHT22;44782;0.000;0.000;2023-06-19T04:06:44;24.80;56.10
58993;DHT22;44782;0.000;0.000;2023-06-19T04:09:02;24.80;56.10
58993;DHT22;44782;0.000;0.000;2023-06-19T04:11:18;24.80;56.00
58993;DHT22;44782;0.000;0.000;2023-06-19T04:13:33;24.80;56.00
58993;DHT22;44782;0.000;0.000;2023-06-19T04:15:49;24.80;56.00
58993;DHT22;44782;0.000;0.000;2023-06-19T04:18:07;24.80;56.00
58993;DHT22;44782;0.000;0.000;2023-06-19T04:20:23;24.80;55.90
58993;DHT22;44782;0.000;0.000;2023-06-19T04:22:39;24.80;56.00
58993;DHT22;44782;0.000;0.000;2023-06-19T04:24:55;24.80;56.00
58993;DHT22;44782;0.000;0.000;2023-06-19T04:27:11;24.80;56.00
58993;DHT22;44782;0.000;0.000;2023-06-19T04:29:26;24.70;55.90
58993;DHT22;44782;0.000;0.000;2023-06-19T04:31:46;24.80;56.00
58993;DHT22;44782;0.000;0.000;2023-06-19T04:34:03;24.80;56.00
58993;DHT22;44782;0.000;0.000;2023-06-19T04:36:20;24.80;56.00
58993;DHT22;44782;0.000;0.000;2023-06-19T04:38:35;24.70;55.90
58993;DHT22;44782;0.000;0.000;2023-06-19T04:40:51;24.80;56.00
58993;DHT22;44782;0.000;0.000;2023-06-19T04:43:07;24.80;56.00
58993;DHT22;44782;0.000;0.000;2023-06-19T04:45:23;24.70;55.90
58993;DHT22;44782;0.000;0.000;2023-06-19T04:47:38;24.70;55.90
58993;DHT22;44782;0.000;0.000;2023-06-19T04:49:54;24.70;55.90
58993;DHT22;44782;0.000;0.000;2023-06-19T04:52:10;24.70;56.00
58993;DHT22;44782;0.000;0.000;2023-06-19T04:54:26;24.70;55.90
58993;DHT22;44782;0.000;0.000;2023-06-19T04:56:42;24.70;56.00
58993;DHT22;44782;0.000;0.000;2023-06-19T04:58:58;24.70;56.00
58993;DHT22;44782;0.000;0.000;2023-06-19T05:01:15;24.70;56.10
58993;DHT22;44782;0.000;0.000;2023-06-19T05:03:31;24.60;56.10
58993;DHT22;44782;0.000;0.000;2023-06-19T05:05:46;24.70;56.20
58993;DHT22;44782;0.000;0.000;2023-06-19T05:08:02;24.70;56.30
58993;DHT22;44782;0.000;0.000;2023-06-19T05:10:18;24.70;56.40
58993;DHT22;44782;0.000;0.000;2023-06-19T05:12:35;24.60;56.40
58993;DHT22;44782;0.000;0.000;2023-06-19T05:14:50;24.60;56.50
58993;DHT22;44782;0.000;0.000;2023-06-19T05:17:06;24.60;56.50
58993;DHT22;44782;0.000;0.000;2023-06-19T05:19:22;24.60;56.60
58993;DHT22;44782;0.000;0.000;2023-06-19T05:21:38;24.60;56.60
58993;DHT22;44782;0.000;0.000;2023-06-19T05:23:53;24.60;56.70
58993;DHT22;44782;0.000;0.000;2023-06-19T05:26:09;24.60;56.70
58993;DHT22;44782;0.000;0.000;2023-06-19T05:28:24;24.60;56.70
58993;DHT22;44782;0.000;0.000;2023-06-19T05:30:40;24.60;56.80
58993;DHT22;44782;0.000;0.000;2023-06-19T05:32:56;24.60;56.80
58993;DHT22;44782;0.000;0.000;2023-06-19T05:35:11;24.60;56.90
58993;DHT22;44782;0.000;0.000;2023-06-19T05:37:27;24.50;56.90
58993;DHT22;44782;0.000;0.000;2023-06-19T05:39:43;24.50;56.90
58993;DHT22;44782;0.000;0.000;2023-06-19T05:41:58;24.50;56.90
58993;DHT22;44782;0.000;0.000;2023-06-19T05:44:14;24.50;57.00
58993;DHT22;44782;0.000;0.000;2023-06-19T05:46:31;24.50;57.00
58993;DHT22;44782;0.000;0.000;2023-06-19T05:48:47;24.50;57.00
58993;DHT22;44782;0.000;0.000;2023-06-19T05:51:03;24.50;57.00
58993;DHT22;44782;0.000;0.000;2023-06-19T05:53:19;24.50;57.10
58993;DHT22;44782;0.000;0.000;2023-06-19T05:55:35;24.50;57.10
58993;DHT22;44782;0.000;0.000;2023-06-19T05:57:51;24.50;57.10
58993;DHT22;44782;0.000;0.000;2023-06-19T06:00:07;24.50;57.10
58993;DHT22;44782;0.000;0.000;2023-06-19T06:02:26;24.50;57.20
58993;DHT22;44782;0.000;0.000;2023-06-19T06:04:43;24.50;57.20
58993;DHT22;44782;0.000;0.000;2023-06-19T06:06:59;24.50;57.20
58993;DHT22;44782;0.000;0.000;2023-06-19T06:09:15;24.50;57.20
58993;DHT22;44782;0.000;0.000;2023-06-19T06:11:31;24.50;57.20
58993;DHT22;44782;0.000;0.000;2023-06-19T06:13:47;24.50;57.20
58993;DHT22;44782;0.000;0.000;2023-06-19T06:16:02;24.50;57.30
58993;DHT22;44782;0.000;0.000;2023-06-19T06:18:18;24.50;57.20
58993;DHT22;44782;0.000;0.000;2023-06-19T06:20:37;24.50;57.20
58993;DHT22;44782;0.000;0.000;2023-06-19T06:22:53;24.50;57.20
58993;DHT22;44782;0.000;0.000;2023-06-19T06:25:09;24.50;57.20
58993;DHT22;44782;0.000;0.000;2023-06-19T06:27:28;24.50;57.20
58993;DHT22;44782;0.000;0.000;2023-06-19T06:29:43;24.50;57.10
58993;DHT22;44782;0.000;0.000;2023-06-19T06:32:09;24.50;57.10
58993;DHT22;44782;0.000;0.000;2023-06-19T06:34:25;24.50;57.20
58993;DHT22;44782;0.000;0.000;2023-06-19T06:36:40;24.50;57.20
58993;DHT22;44782;0.000;0.000;2023-06-19T06:38:56;24.50;57.20
58993;DHT22;44782;0.000;0.000;2023-06-19T06:41:11;24.50;57.20
58993;DHT22;44782;0.000;0.000;2023-06-19T06:43:27;24.50;57.20
58993;DHT22;44782;0.000;0.000;2023-06-19T06:45:43;24.50;57.90
58993;DHT22;44782;0.000;0.000;2023-06-19T06:47:59;24.50;57.10
58993;DHT22;44782;0.000;0.000;2023-06-19T06:50:14;24.50;57.30
58993;DHT22;44782;0.000;0.000;2023-06-19T06:52:30;24.50;57.20
58993;DHT22;44782;0.000;0.000;2023-06-19T06:54:46;24.50;57.20
58993;DHT22;44782;0.000;0.000;2023-06-19T06:57:02;24.50;57.20
58993;DHT22;44782;0.000;0.000;2023-06-19T06:59:18;24.50;57.20
58993;DHT22;44782;0.000;0.000;2023-06-19T07:01:33;24.50;57.20
58993;DHT22;44782;0.000;0.000;2023-06-19T07:03:49;24.50;57.20
58993;DHT22;44782;0.000;0.000;2023-06-19T07:06:07;24.50;57.20
58993;DHT22;44782;0.000;0.000;2023-06-19T07:08:23;24.50;57.20
58993;DHT22;44782;0.000;0.000;2023-06-19T07:10:39;24.50;57.20
58993;DHT22;44782;0.000;0.000;2023-06-19T07:12:54;24.50;57.20
58993;DHT22;44782;0.000;0.000;2023-06-19T07:15:10;24.50;57.10
58993;DHT22;44782;0.000;0.000;2023-06-19T07:17:28;24.50;57.20
58993;DHT22;44782;0.000;0.000;2023-06-19T07:19:44;24.50;57.10
58993;DHT22;44782;0.000;0.000;2023-06-19T07:22:00;24.50;57.20
58993;DHT22;44782;0.000;0.000;2023-06-19T07:24:16;24.40;57.10
58993;DHT22;44782;0.000;0.000;2023-06-19T07:26:31;24.50;57.20
58993;DHT22;44782;0.000;0.000;2023-06-19T07:28:47;24.50;57.20
58993;DHT22;44782;0.000;0.000;2023-06-19T07:31:03;24.50;57.20
58993;DHT22;44782;0.000;0.000;2023-06-19T07:33:19;24.50;57.30
58993;DHT22;44782;0.000;0.000;2023-06-19T07:35:37;24.50;57.40
58993;DHT22;44782;0.000;0.000;2023-06-19T07:37:53;24.50;57.30
58993;DHT22;44782;0.000;0.000;2023-06-19T07:40:09;24.40;57.20
58993;DHT22;44782;0.000;0.000;2023-06-19T07:42:26;24.40;57.20
58993;DHT22;44782;0.000;0.000;2023-06-19T07:44:42;24.40;57.20
58993;DHT22;44782;0.000;0.000;2023-06-19T07:46:58;24.50;57.30
58993;DHT22;44782;0.000;0.000;2023-06-19T07:49:13;24.50;57.30
58993;DHT22;44782;0.000;0.000;2023-06-19T07:51:29;24.50;57.40
58993;DHT22;44782;0.000;0.000;2023-06-19T07:53:45;24.50;57.40
58993;DHT22;44782;0.000;0.000;2023-06-19T07:56:01;24.50;57.30
58993;DHT22;44782;0.000;0.000;2023-06-19T07:58:16;24.40;57.20
58993;DHT22;44782;0.000;0.000;2023-06-19T08:00:32;24.40;57.20
58993;DHT22;44782;0.000;0.000;2023-06-19T08:02:48;24.50;57.30
58993;DHT22;44782;0.000;0.000;2023-06-19T08:05:03;24.50;57.30
58993;DHT22;44782;0.000;0.000;2023-06-19T08:07:19;24.50;57.30
58993;DHT22;44782;0.000;0.000;2023-06-19T08:09:37;24.40;57.20
58993;DHT22;44782;0.000;0.000;2023-06-19T08:11:53;24.40;57.20
58993;DHT22;44782;0.000;0.000;2023-06-19T08:14:08;24.50;57.40
58993;DHT22;44782;0.000;0.000;2023-06-19T08:16:25;24.50;57.40
58993;DHT22;44782;0.000;0.000;2023-06-19T08:18:41;24.50;57.40
58993;DHT22;44782;0.000;0.000;2023-06-19T08:20:58;24.40;57.40
58993;DHT22;44782;0.000;0.000;2023-06-19T08:23:14;24.40;57.40
58993;DHT22;44782;0.000;0.000;2023-06-19T08:25:30;24.50;57.50
58993;DHT22;44782;0.000;0.000;2023-06-19T08:27:45;24.40;57.50
58993;DHT22;44782;0.000;0.000;2023-06-19T08:30:01;24.50;57.60
58993;DHT22;44782;0.000;0.000;2023-06-19T08:32:17;24.50;57.60
58993;DHT22;44782;0.000;0.000;2023-06-19T08:34:32;24.50;57.60
58993;DHT22;44782;0.000;0.000;2023-06-19T08:37:01;24.50;57.60
58993;DHT22;44782;0.000;0.000;2023-06-19T08:39:16;24.50;57.80
58993;DHT22;44782;0.000;0.000;2023-06-19T08:41:32;24.50;57.70
58993;DHT22;44782;0.000;0.000;2023-06-19T08:43:50;24.50;57.90
58993;DHT22;44782;0.000;0.000;2023-06-19T08:46:17;24.50;57.70
58993;DHT22;44782;0.000;0.000;2023-06-19T08:48:37;24.50;57.80
58993;DHT22;44782;0.000;0.000;2023-06-19T08:50:53;24.50;57.70
58993;DHT22;44782;0.000;0.000;2023-06-19T08:53:11;24.50;57.60
58993;DHT22;44782;0.000;0.000;2023-06-19T08:55:27;24.50;57.60
58993;DHT22;44782;0.000;0.000;2023-06-19T08:57:48;24.60;57.60
58993;DHT22;44782;0.000;0.000;2023-06-19T09:00:05;24.60;57.70
58993;DHT22;44782;0.000;0.000;2023-06-19T09:02:23;24.60;57.70
58993;DHT22;44782;0.000;0.000;2023-06-19T09:04:43;24.60;57.70
58993;DHT22;44782;0.000;0.000;2023-06-19T09:07:01;24.60;57.60
58993;DHT22;44782;0.000;0.000;2023-06-19T09:09:19;24.60;57.60
58993;DHT22;44782;0.000;0.000;2023-06-19T09:11:36;24.50;57.50
58993;DHT22;44782;0.000;0.000;2023-06-19T09:13:58;24.60;57.60
58993;DHT22;44782;0.000;0.000;2023-06-19T09:16:16;24.60;57.60
58993;DHT22;44782;0.000;0.000;2023-06-19T09:18:42;24.60;57.50
58993;DHT22;44782;0.000;0.000;2023-06-19T09:20:58;24.60;57.50
58993;DHT22;44782;0.000;0.000;2023-06-19T09:23:14;24.60;57.50
58993;DHT22;44782;0.000;0.000;2023-06-19T09:25:30;24.60;57.40
58993;DHT22;44782;0.000;0.000;2023-06-19T09:27:46;24.60;57.40
58993;DHT22;44782;0.000;0.000;2023-06-19T09:30:02;24.60;57.60
58993;DHT22;44782;0.000;0.000;2023-06-19T09:32:26;24.60;57.50
58993;DHT22;44782;0.000;0.000;2023-06-19T09:34:43;24.60;57.70
58993;DHT22;44782;0.000;0.000;2023-06-19T09:36:59;24.60;57.70
58993;DHT22;44782;0.000;0.000;2023-06-19T09:39:15;24.60;57.60
58993;DHT22;44782;0.000;0.000;2023-06-19T09:41:32;24.70;57.50
58993;DHT22;44782;0.000;0.000;2023-06-19T09:43:55;24.70;57.60
58993;DHT22;44782;0.000;0.000;2023-06-19T09:46:17;24.70;57.60
58993;DHT22;44782;0.000;0.000;2023-06-19T09:48:41;24.70;57.60
58993;DHT22;44782;0.000;0.000;2023-06-19T09:53:36;24.70;57.60
58993;DHT22;44782;0.000;0.000;2023-06-19T09:55:55;24.70;57.60
58993;DHT22;44782;0.000;0.000;2023-06-19T09:58:11;24.70;57.50
58993;DHT22;44782;0.000;0.000;2023-06-19T10:02:46;24.70;57.40
58993;DHT22;44782;0.000;0.000;2023-06-19T10:05:02;24.70;57.40
58993;DHT22;44782;0.000;0.000;2023-06-19T10:07:25;24.70;57.40
58993;DHT22;44782;0.000;0.000;2023-06-19T10:10:08;24.80;57.50
58993;DHT22;44782;0.000;0.000;2023-06-19T10:12:40;24.80;57.50
58993;DHT22;44782;0.000;0.000;2023-06-19T10:14:56;24.80;57.60
58993;DHT22;44782;0.000;0.000;2023-06-19T10:17:12;24.80;57.60
58993;DHT22;44782;0.000;0.000;2023-06-19T10:19:28;24.80;57.60
58993;DHT22;44782;0.000;0.000;2023-06-19T10:21:46;24.80;58.30
58993;DHT22;44782;0.000;0.000;2023-06-19T10:26:32;24.80;57.50
58993;DHT22;44782;0.000;0.000;2023-06-19T10:28:48;24.80;57.60
58993;DHT22;44782;0.000;0.000;2023-06-19T10:31:06;24.80;57.60
58993;DHT22;44782;0.000;0.000;2023-06-19T10:33:27;24.80;57.60
58993;DHT22;44782;0.000;0.000;2023-06-19T10:35:43;24.80;57.60
58993;DHT22;44782;0.000;0.000;2023-06-19T10:37:59;24.80;57.70
58993;DHT22;44782;0.000;0.000;2023-06-19T10:40:15;24.80;57.70
58993;DHT22;44782;0.000;0.000;2023-06-19T10:42:31;24.80;57.70
58993;DHT22;44782;0.000;0.000;2023-06-19T10:44:47;24.90;57.70
58993;DHT22;44782;0.000;0.000;2023-06-19T10:47:02;24.80;57.70
58993;DHT22;44782;0.000;0.000;2023-06-19T10:49:18;24.80;57.70
58993;DHT22;44782;0.000;0.000;2023-06-19T10:51:35;24.80;58.40
58993;DHT22;44782;0.000;0.000;2023-06-19T10:53:59;24.90;57.70
58993;DHT22;44782;0.000;0.000;2023-06-19T10:56:14;24.90;57.70
58993;DHT22;44782;0.000;0.000;2023-06-19T10:58:30;24.90;57.80
58993;DHT22;44782;0.000;0.000;2023-06-19T11:00:46;24.90;57.70
58993;DHT22;44782;0.000;0.000;2023-06-19T11:03:01;24.90;57.70
58993;DHT22;44782;0.000;0.000;2023-06-19T11:05:20;24.90;57.60
58993;DHT22;44782;0.000;0.000;2023-06-19T11:07:35;24.90;57.50
58993;DHT22;44782;0.000;0.000;2023-06-19T11:09:51;24.90;57.50
58993;DHT22;44782;0.000;0.000;2023-06-19T11:12:07;25.00;57.50
58993;DHT22;44782;0.000;0.000;2023-06-19T11:14:28;24.90;57.50
58993;DHT22;44782;0.000;0.000;2023-06-19T11:16:47;25.00;57.50
58993;DHT22;44782;0.000;0.000;2023-06-19T11:19:03;25.00;57.40
58993;DHT22;44782;0.000;0.000;2023-06-19T11:21:19;24.90;57.40
58993;DHT22;44782;0.000;0.000;2023-06-19T11:23:40;25.00;57.40
58993;DHT22;44782;0.000;0.000;2023-06-19T11:26:05;25.00;57.40
58993;DHT22;44782;0.000;0.000;2023-06-19T11:28:21;25.00;57.30
58993;DHT22;44782;0.000;0.000;2023-06-19T11:30:37;24.90;57.30
58993;DHT22;44782;0.000;0.000;2023-06-19T11:32:53;25.00;57.30
58993;DHT22;44782;0.000;0.000;2023-06-19T11:35:11;25.00;57.40
58993;DHT22;44782;0.000;0.000;2023-06-19T11:37:29;25.00;57.30
58993;DHT22;44782;0.000;0.000;2023-06-19T11:39:46;25.00;57.30
58993;DHT22;44782;0.000;0.000;2023-06-19T11:42:01;25.00;57.30
58993;DHT22;44782;0.000;0.000;2023-06-19T11:44:18;25.00;57.30
58993;DHT22;44782;0.000;0.000;2023-06-19T11:46:34;25.00;57.20
58993;DHT22;44782;0.000;0.000;2023-06-19T11:48:53;25.00;57.20
58993;DHT22;44782;0.000;0.000;2023-06-19T11:51:08;25.00;57.20
58993;DHT22;44782;0.000;0.000;2023-06-19T11:53:25;25.00;57.20
58993;DHT22;44782;0.000;0.000;2023-06-19T11:55:40;25.00;57.20
58993;DHT22;44782;0.000;0.000;2023-06-19T11:57:56;25.00;57.10
58993;DHT22;44782;0.000;0.000;2023-06-19T12:00:16;25.00;57.10
58993;DHT22;44782;0.000;0.000;2023-06-19T12:02:32;25.00;57.10
58993;DHT22;44782;0.000;0.000;2023-06-19T12:04:48;25.00;57.10
58993;DHT22;44782;0.000;0.000;2023-06-19T12:07:04;25.00;57.10
58993;DHT22;44782;0.000;0.000;2023-06-19T12:09:20;25.00;57.00
58993;DHT22;44782;0.000;0.000;2023-06-19T12:11:36;25.00;57.00
58993;DHT22;44782;0.000;0.000;2023-06-19T12:13:51;25.00;56.90
58993;DHT22;44782;0.000;0.000;2023-06-19T12:16:10;25.00;56.90
58993;DHT22;44782;0.000;0.000;2023-06-19T12:18:28;25.00;56.80
58993;DHT22;44782;0.000;0.000;2023-06-19T12:20:44;25.00;56.90
58993;DHT22;44782;0.000;0.000;2023-06-19T12:23:00;25.00;56.80
58993;DHT22;44782;0.000;0.000;2023-06-19T12:25:15;25.00;56.80
58993;DHT22;44782;0.000;0.000;2023-06-19T12:27:31;25.10;56.90
58993;DHT22;44782;0.000;0.000;2023-06-19T12:29:47;25.00;56.70
58993;DHT22;44782;0.000;0.000;2023-06-19T12:32:03;25.10;56.80
58993;DHT22;44782;0.000;0.000;2023-06-19T12:34:19;25.10;56.80
58993;DHT22;44782;0.000;0.000;2023-06-19T12:36:35;25.10;56.80
58993;DHT22;44782;0.000;0.000;2023-06-19T12:38:52;25.10;56.80
58993;DHT22;44782;0.000;0.000;2023-06-19T12:41:09;25.00;56.60
58993;DHT22;44782;0.000;0.000;2023-06-19T12:43:25;25.10;56.80
58993;DHT22;44782;0.000;0.000;2023-06-19T12:45:40;25.00;56.70
58993;DHT22;44782;0.000;0.000;2023-06-19T12:47:56;25.10;56.70
58993;DHT22;44782;0.000;0.000;2023-06-19T12:50:12;25.00;56.60
58993;DHT22;44782;0.000;0.000;2023-06-19T12:52:28;25.10;56.70
58993;DHT22;44782;0.000;0.000;2023-06-19T12:54:43;25.00;56.60
58993;DHT22;44782;0.000;0.000;2023-06-19T12:56:59;25.10;56.60
58993;DHT22;44782;0.000;0.000;2023-06-19T12:59:15;25.00;56.50
58993;DHT22;44782;0.000;0.000;2023-06-19T13:01:31;25.00;56.50
58993;DHT22;44782;0.000;0.000;2023-06-19T13:03:46;25.00;56.50
58993;DHT22;44782;0.000;0.000;2023-06-19T13:06:02;25.00;56.40
58993;DHT22;44782;0.000;0.000;2023-06-19T13:08:18;25.00;56.50
58993;DHT22;44782;0.000;0.000;2023-06-19T13:10:33;25.10;56.50
58993;DHT22;44782;0.000;0.000;2023-06-19T13:12:49;25.00;56.40
58993;DHT22;44782;0.000;0.000;2023-06-19T13:15:08;25.00;56.40
58993;DHT22;44782;0.000;0.000;2023-06-19T13:17:24;25.00;56.30
58993;DHT22;44782;0.000;0.000;2023-06-19T13:19:40;25.00;56.40
58993;DHT22;44782;0.000;0.000;2023-06-19T13:21:56;25.00;56.40
58993;DHT22;44782;0.000;0.000;2023-06-19T13:24:11;25.00;56.40
58993;DHT22;44782;0.000;0.000;2023-06-19T13:26:27;25.00;56.40
58993;DHT22;44782;0.000;0.000;2023-06-19T13:28:43;25.00;56.30
58993;DHT22;44782;0.000;0.000;2023-06-19T13:30:59;25.00;56.30
58993;DHT22;44782;0.000;0.000;2023-06-19T13:33:15;25.00;56.30
58993;DHT22;44782;0.000;0.000;2023-06-19T13:35:31;25.00;56.30
58993;DHT22;44782;0.000;0.000;2023-06-19T13:37:47;25.00;56.30
58993;DHT22;44782;0.000;0.000;2023-06-19T13:40:03;25.00;56.30
58993;DHT22;44782;0.000;0.000;2023-06-19T13:42:19;25.00;56.30
58993;DHT22;44782;0.000;0.000;2023-06-19T13:44:38;25.00;56.30
58993;DHT22;44782;0.000;0.000;2023-06-19T13:46:54;25.00;56.20
58993;DHT22;44782;0.000;0.000;2023-06-19T13:49:09;25.00;56.30
58993;DHT22;44782;0.000;0.000;2023-06-19T13:51:26;25.00;56.30
58993;DHT22;44782;0.000;0.000;2023-06-19T13:53:42;25.00;56.30
58993;DHT22;44782;0.000;0.000;2023-06-19T13:55:57;25.00;56.30
58993;DHT22;44782;0.000;0.000;2023-06-19T13:58:13;25.00;56.40
58993;DHT22;44782;0.000;0.000;2023-06-19T14:00:29;25.00;56.30
58993;DHT22;44782;0.000;0.000;2023-06-19T14:02:44;25.00;56.40
58993;DHT22;44782;0.000;0.000;2023-06-19T14:05:00;25.00;56.50
58993;DHT22;44782;0.000;0.000;2023-06-19T14:07:16;25.00;56.60
58993;DHT22;44782;0.000;0.000;2023-06-19T14:09:33;25.10;56.80
58993;DHT22;44782;0.000;0.000;2023-06-19T14:11:48;25.00;56.60
58993;DHT22;44782;0.000;0.000;2023-06-19T14:14:07;25.00;56.60
58993;DHT22;44782;0.000;0.000;2023-06-19T14:16:23;25.00;56.60
58993;DHT22;44782;0.000;0.000;2023-06-19T14:18:38;25.10;56.70
58993;DHT22;44782;0.000;0.000;2023-06-19T14:20:54;25.00;56.50
58993;DHT22;44782;0.000;0.000;2023-06-19T14:23:10;25.10;56.60
58993;DHT22;44782;0.000;0.000;2023-06-19T14:25:25;25.00;56.50
58993;DHT22;44782;0.000;0.000;2023-06-19T14:27:41;25.00;56.50
58993;DHT22;44782;0.000;0.000;2023-06-19T14:29:57;25.00;56.40
58993;DHT22;44782;0.000;0.000;2023-06-19T14:32:13;25.00;56.40
58993;DHT22;44782;0.000;0.000;2023-06-19T14:34:29;25.10;56.50
58993;DHT22;44782;0.000;0.000;2023-06-19T14:36:44;25.00;56.40
58993;DHT22;44782;0.000;0.000;2023-06-19T14:39:00;25.10;56.50
58993;DHT22;44782;0.000;0.000;2023-06-19T14:41:16;25.00;56.40
58993;DHT22;44782;0.000;0.000;2023-06-19T14:43:32;25.00;56.40
58993;DHT22;44782;0.000;0.000;2023-06-19T14:45:48;25.00;56.40
58993;DHT22;44782;0.000;0.000;2023-06-19T14:48:04;25.00;56.40